createdAt,value
2018-12-08T00:02:49.907Z,97639.25
2018-12-08T00:05:54.110Z,97656.27
2018-12-08T00:08:58.325Z,97658.33
2018-12-08T00:12:02.409Z,97662.89
2018-12-08T00:15:06.841Z,97679.23
2018-12-08T00:18:10.921Z,97670.16
2018-12-08T00:21:14.994Z,97686.10
2018-12-08T00:24:19.071Z,97696.38
2018-12-08T00:27:28.573Z,97696.70
2018-12-08T00:30:50.225Z,97709.38
2018-12-08T00:33:54.486Z,97711.66
2018-12-08T00:36:58.563Z,97721.23
2018-12-08T00:40:02.989Z,97727.73
2018-12-08T00:43:07.085Z,97739.59
2018-12-08T00:46:11.156Z,97739.35
2018-12-08T00:49:15.235Z,97734.00
2018-12-08T00:55:48.278Z,97747.18
2018-12-08T00:58:52.349Z,97741.00
2018-12-08T01:01:57.007Z,97758.01
2018-12-08T01:05:01.086Z,97764.31
2018-12-08T01:08:05.370Z,97757.02
2018-12-08T01:11:09.436Z,97774.06
2018-12-08T01:14:13.496Z,97778.66
2018-12-08T01:17:17.570Z,97784.53
2018-12-08T01:20:22.336Z,97787.48
2018-12-08T01:23:26.398Z,97778.36
2018-12-08T01:26:30.673Z,97782.89
2018-12-08T01:29:34.797Z,97785.09
2018-12-08T01:32:39.009Z,97798.98
2018-12-08T01:35:43.157Z,97790.37
2018-12-08T01:38:47.224Z,97808.67
2018-12-08T01:45:07.929Z,97788.03
2018-12-08T01:48:12.082Z,97783.13
2018-12-08T01:51:16.222Z,97776.98
2018-12-08T01:54:20.381Z,97786.72
2018-12-08T01:57:24.513Z,97785.54
2018-12-08T02:00:28.625Z,97785.00
2018-12-08T02:03:32.762Z,97787.37
2018-12-08T02:06:37.536Z,97791.96
2018-12-08T02:09:41.608Z,97787.80
2018-12-08T02:12:45.689Z,97805.38
2018-12-08T02:15:49.748Z,97806.46
2018-12-08T02:18:53.822Z,97797.64
2018-12-08T02:21:57.957Z,97799.31
2018-12-08T02:25:02.097Z,97800.69
2018-12-08T02:28:06.202Z,97809.59
2018-12-08T02:31:10.293Z,97791.77
2018-12-08T02:34:14.465Z,97797.97
2018-12-08T02:37:18.528Z,97799.81
2018-12-08T02:40:22.604Z,97807.13
2018-12-08T02:43:26.736Z,97805.61
2018-12-08T02:46:30.817Z,97806.12
2018-12-08T02:49:34.963Z,97810.77
2018-12-08T02:52:39.018Z,97811.06
2018-12-08T02:55:43.093Z,97819.17
2018-12-08T02:58:47.155Z,97816.55
2018-12-08T03:01:51.246Z,97807.64
2018-12-08T03:04:55.328Z,97804.02
2018-12-08T03:07:59.385Z,97802.78
2018-12-08T03:11:03.462Z,97802.78
2018-12-08T03:14:07.537Z,97806.75
2018-12-08T03:17:11.608Z,97809.66
2018-12-08T03:20:15.672Z,97819.03
2018-12-08T03:23:19.785Z,97817.35
2018-12-08T03:26:24.937Z,97817.05
2018-12-08T03:29:29.005Z,97807.89
2018-12-08T03:32:33.137Z,97834.52
2018-12-08T03:35:37.194Z,97824.92
2018-12-08T03:38:41.275Z,97831.05
2018-12-08T03:41:45.377Z,97837.28
2018-12-08T03:44:49.429Z,97822.95
2018-12-08T03:47:53.511Z,97808.77
2018-12-08T03:50:57.644Z,97803.30
2018-12-08T03:54:02.700Z,97814.37
2018-12-08T03:57:06.812Z,97816.69
2018-12-08T04:00:11.086Z,97805.72
2018-12-08T04:03:15.150Z,97814.55
2018-12-08T04:06:19.201Z,97804.89
2018-12-08T04:09:23.288Z,97809.20
2018-12-08T04:12:27.401Z,97805.82
2018-12-08T04:15:31.492Z,97811.71
2018-12-08T04:18:35.624Z,97810.64
2018-12-08T04:21:39.702Z,97807.11
2018-12-08T04:24:44.041Z,97810.95
2018-12-08T04:27:48.157Z,97820.56
2018-12-08T04:30:52.382Z,97819.83
2018-12-08T04:33:56.491Z,97802.67
2018-12-08T04:37:00.513Z,97797.09
2018-12-08T04:40:05.588Z,97796.98
2018-12-08T04:43:09.704Z,97802.17
2018-12-08T04:46:13.778Z,97792.12
2018-12-08T04:49:17.876Z,97794.44
2018-12-08T04:52:22.013Z,97788.75
2018-12-08T04:55:26.204Z,97789.74
2018-12-08T04:58:30.218Z,97793.78
2018-12-08T05:01:34.298Z,97805.72
2018-12-08T05:04:38.509Z,97797.27
2018-12-08T05:07:42.587Z,97800.91
2018-12-08T05:10:46.651Z,97799.41
2018-12-08T05:13:50.704Z,97802.52
2018-12-08T05:16:54.844Z,97791.34
2018-12-08T05:19:58.906Z,97786.87
2018-12-08T05:23:03.067Z,97790.91
2018-12-08T05:26:07.200Z,97805.75
2018-12-08T05:29:11.256Z,97802.29
2018-12-08T05:32:15.337Z,97807.48
2018-12-08T05:35:19.445Z,97801.50
2018-12-08T05:38:23.520Z,97801.50
2018-12-08T05:41:27.576Z,97793.38
2018-12-08T05:44:31.629Z,97801.53
2018-12-08T05:47:35.704Z,97806.48
2018-12-08T05:50:39.757Z,97814.40
2018-12-08T05:53:43.900Z,97806.10
2018-12-08T05:56:47.948Z,97816.71
2018-12-08T05:59:52.032Z,97831.70
2018-12-08T06:02:56.118Z,97835.80
2018-12-08T06:06:00.160Z,97836.18
2018-12-08T06:09:06.045Z,97855.04
2018-12-08T06:12:10.124Z,97856.99
2018-12-08T06:15:14.267Z,97859.08
2018-12-08T06:18:18.413Z,97867.38
2018-12-08T06:21:32.720Z,97858.05
2018-12-08T06:24:36.785Z,97866.49
2018-12-08T06:27:48.441Z,97859.16
2018-12-08T06:30:52.567Z,97866.47
2018-12-08T06:33:56.685Z,97863.21
2018-12-08T06:37:00.769Z,97864.91
2018-12-08T06:40:06.832Z,97842.77
2018-12-08T06:43:10.881Z,97835.98
2018-12-08T06:49:48.285Z,97853.16
2018-12-08T06:52:52.357Z,97855.30
2018-12-08T07:02:37.993Z,97836.92
2018-12-08T07:05:42.070Z,97833.81
2018-12-08T07:08:49.961Z,97834.34
2018-12-08T07:11:54.052Z,97837.25
2018-12-08T07:14:58.215Z,97839.59
2018-12-08T07:18:02.870Z,97831.62
2018-12-08T07:24:48.525Z,97840.59
2018-12-08T07:27:52.617Z,97833.61
2018-12-08T07:30:56.673Z,97838.73
2018-12-08T07:34:06.320Z,97844.34
2018-12-08T07:40:48.927Z,97831.75
2018-12-08T07:43:52.962Z,97828.15
2018-12-08T07:50:48.633Z,97831.30
2018-12-08T07:53:52.830Z,97835.50
2018-12-08T07:56:56.914Z,97846.45
2018-12-08T08:03:49.825Z,97836.76
2018-12-08T08:06:54.972Z,97827.61
2018-12-08T08:09:59.041Z,97800.26
2018-12-08T08:13:03.188Z,97803.17
2018-12-08T08:16:07.259Z,97797.05
2018-12-08T08:19:11.341Z,97780.55
2018-12-08T08:22:15.442Z,97790.34
2018-12-08T08:25:19.666Z,97798.81
2018-12-08T08:28:23.756Z,97796.95
2018-12-08T08:31:27.833Z,97805.52
2018-12-08T08:34:31.904Z,97805.98
2018-12-08T08:37:35.973Z,97790.87
2018-12-08T08:40:40.133Z,97799.81
2018-12-08T08:43:44.979Z,97796.41
2018-12-08T08:46:49.099Z,97794.67
2018-12-08T08:49:53.217Z,97782.34
2018-12-08T08:52:57.433Z,97788.59
2018-12-08T08:56:01.830Z,97777.23
2018-12-08T08:59:05.924Z,97776.11
2018-12-08T09:02:10.066Z,97778.08
2018-12-08T09:05:14.141Z,97767.28
2018-12-08T09:08:18.196Z,97777.54
2018-12-08T09:11:22.336Z,97771.19
2018-12-08T09:14:26.379Z,97773.20
2018-12-08T09:17:30.472Z,97767.20
2018-12-08T09:20:34.575Z,97767.14
2018-12-08T09:23:38.622Z,97756.97
2018-12-08T09:26:42.760Z,97760.30
2018-12-08T09:29:46.881Z,97755.14
2018-12-08T09:32:51.052Z,97742.26
2018-12-08T09:35:55.235Z,97739.81
2018-12-08T09:38:59.307Z,97734.50
2018-12-08T09:42:03.394Z,97729.02
2018-12-08T09:45:07.683Z,97723.47
2018-12-08T09:48:11.764Z,97722.69
2018-12-08T09:51:15.941Z,97720.66
2018-12-08T09:54:20.014Z,97718.83
2018-12-08T09:57:24.101Z,97726.59
2018-12-08T10:00:28.150Z,97724.33
2018-12-08T10:03:32.217Z,97728.88
2018-12-08T10:06:36.442Z,97727.13
2018-12-08T10:09:40.630Z,97733.14
2018-12-08T10:12:44.797Z,97731.70
2018-12-08T10:15:48.862Z,97729.12
2018-12-08T10:18:52.972Z,97757.19
2018-12-08T10:21:57.025Z,97735.00
2018-12-08T10:25:01.108Z,97723.75
2018-12-08T10:28:05.181Z,97712.89
2018-12-08T10:31:09.393Z,97712.03
2018-12-08T10:34:13.586Z,97720.00
2018-12-08T10:37:17.667Z,97715.58
2018-12-08T10:40:21.734Z,97724.63
2018-12-08T10:43:25.805Z,97737.07
2018-12-08T10:46:29.948Z,97737.14
2018-12-08T10:49:34.035Z,97737.90
2018-12-08T10:52:38.107Z,97714.12
2018-12-08T10:55:44.166Z,97716.17
2018-12-08T10:58:48.210Z,97706.69
2018-12-08T11:05:21.285Z,97709.73
2018-12-08T11:08:25.345Z,97705.72
2018-12-08T11:11:29.489Z,97716.32
2018-12-08T11:14:33.572Z,97708.94
2018-12-08T11:17:48.779Z,97707.31
2018-12-08T11:20:52.869Z,97722.20
2018-12-08T11:23:57.017Z,97717.06
2018-12-08T11:27:01.147Z,97718.15
2018-12-08T11:30:05.839Z,97713.66
2018-12-08T11:33:09.945Z,97709.22
2018-12-08T11:39:50.266Z,97702.67
2018-12-08T11:42:54.359Z,97704.77
2018-12-08T11:45:58.461Z,97696.30
2018-12-08T11:49:02.575Z,97692.75
2018-12-08T11:52:06.716Z,97703.06
2018-12-08T11:58:48.797Z,97694.89
2018-12-08T12:01:53.014Z,97682.20
2018-12-08T12:04:57.105Z,97691.83
2018-12-08T12:08:13.098Z,97699.92
2018-12-08T12:11:17.339Z,97691.53
2018-12-08T12:14:47.277Z,97695.05
2018-12-08T12:17:51.441Z,97683.38
2018-12-08T12:20:55.514Z,97701.05
2018-12-08T12:23:59.660Z,97695.09
2018-12-08T12:27:03.790Z,97689.23
2018-12-08T12:30:09.689Z,97696.48
2018-12-08T12:33:13.765Z,97700.50
2018-12-08T12:36:17.862Z,97696.81
2018-12-08T12:39:21.941Z,97696.44
2018-12-08T12:45:50.629Z,97688.70
2018-12-08T12:48:54.737Z,97676.77
2018-12-08T12:51:58.841Z,97684.25
2018-12-08T12:55:02.984Z,97671.42
2018-12-08T12:58:07.049Z,97672.84
2018-12-08T13:01:11.187Z,97669.50
2018-12-08T13:04:15.342Z,97664.73
2018-12-08T13:07:19.429Z,97682.61
2018-12-08T13:10:23.510Z,97671.84
2018-12-08T13:13:27.619Z,97677.63
2018-12-08T13:16:48.279Z,97680.67
2018-12-08T13:19:52.343Z,97678.70
2018-12-08T13:22:56.415Z,97674.47
2018-12-08T13:26:00.485Z,97681.82
2018-12-08T13:29:04.549Z,97678.20
2018-12-08T13:32:08.633Z,97672.56
2018-12-08T13:39:04.695Z,97667.11
2018-12-08T13:42:08.782Z,97674.94
2018-12-08T13:45:17.161Z,97669.59
2018-12-08T13:48:21.514Z,97677.67
2018-12-08T13:51:25.584Z,97685.14
2018-12-08T13:54:48.254Z,97677.08
2018-12-08T13:57:52.345Z,97680.22
2018-12-08T14:00:56.444Z,97690.27
2018-12-08T14:04:00.521Z,97688.16
2018-12-08T14:07:04.572Z,97684.88
2018-12-08T14:10:09.754Z,97685.97
2018-12-08T14:13:13.894Z,97682.74
2018-12-08T14:16:17.966Z,97687.76
2018-12-08T14:19:22.069Z,97700.52
2018-12-08T14:22:26.155Z,97705.42
2018-12-08T14:28:50.106Z,97709.14
2018-12-08T14:31:54.632Z,97707.91
2018-12-08T14:34:58.777Z,97707.45
2018-12-08T14:38:02.905Z,97711.08
2018-12-08T14:41:07.049Z,97720.84
2018-12-08T14:44:11.155Z,97721.37
2018-12-08T14:47:15.245Z,97724.11
2018-12-08T14:50:19.342Z,97720.38
2018-12-08T14:53:23.465Z,97705.11
2018-12-08T14:56:27.639Z,97711.16
2018-12-08T14:59:48.660Z,97712.49
2018-12-08T15:02:52.767Z,97713.88
2018-12-08T15:05:56.851Z,97700.09
2018-12-08T15:09:01.578Z,97705.44
2018-12-08T15:12:06.755Z,97696.11
2018-12-08T15:15:10.957Z,97694.89
2018-12-08T15:25:48.291Z,97677.84
2018-12-08T15:32:07.234Z,97665.11
2018-12-08T15:45:50.730Z,97655.36
2018-12-08T15:48:54.818Z,97658.52
2018-12-08T15:51:58.950Z,97655.16
2018-12-08T15:55:03.035Z,97647.19
2018-12-08T15:58:07.114Z,97651.42
2018-12-08T16:11:47.954Z,97652.31
2018-12-08T16:18:07.205Z,97649.25
2018-12-08T16:39:10.826Z,97643.33
2018-12-08T16:42:14.928Z,97644.64
2018-12-08T16:45:20.416Z,97637.38
2018-12-08T16:48:24.492Z,97635.02
2018-12-08T16:51:28.628Z,97635.50
2018-12-08T16:54:32.824Z,97621.44
2018-12-08T16:57:36.881Z,97624.50
2018-12-08T17:00:41.141Z,97616.88
2018-12-08T17:03:45.394Z,97611.97
2018-12-08T17:06:50.531Z,97607.70
2018-12-08T17:09:54.743Z,97604.72
2018-12-08T17:12:58.834Z,97604.00
2018-12-08T17:16:03.157Z,97598.44
2018-12-08T17:19:07.314Z,97586.76
2018-12-08T17:22:11.767Z,97587.78
2018-12-08T17:25:15.933Z,97583.38
2018-12-08T17:28:20.030Z,97567.32
2018-12-08T17:31:24.136Z,97559.20
2018-12-08T17:34:28.275Z,97566.23
2018-12-08T17:37:32.466Z,97558.94
2018-12-08T17:40:36.529Z,97553.19
2018-12-08T17:43:40.631Z,97557.42
2018-12-08T17:46:44.739Z,97536.41
2018-12-08T17:49:48.862Z,97527.16
2018-12-08T17:52:52.917Z,97523.17
2018-12-08T17:55:56.986Z,97514.28
2018-12-08T17:59:01.077Z,97513.28
2018-12-08T18:02:05.458Z,97505.16
2018-12-08T18:05:09.757Z,97497.88
2018-12-08T18:08:13.884Z,97497.52
2018-12-08T18:11:17.955Z,97476.92
2018-12-08T18:14:22.011Z,97483.02
2018-12-08T18:17:26.099Z,97475.39
2018-12-08T18:20:30.179Z,97478.29
2018-12-08T18:23:34.240Z,97478.86
2018-12-08T18:26:38.330Z,97472.44
2018-12-08T18:29:42.410Z,97471.16
2018-12-08T18:32:46.548Z,97456.94
2018-12-08T18:35:50.619Z,97457.28
2018-12-08T18:38:54.698Z,97436.28
2018-12-08T18:42:00.822Z,97429.31
2018-12-08T18:45:06.322Z,97421.05
2018-12-08T18:48:10.467Z,97419.77
2018-12-08T18:51:14.596Z,97419.67
2018-12-08T18:54:18.672Z,97430.42
2018-12-08T18:57:22.760Z,97419.17
2018-12-08T19:00:26.968Z,97427.13
2018-12-08T19:03:31.040Z,97402.07
2018-12-08T19:06:35.121Z,97372.86
2018-12-08T19:09:39.189Z,97375.16
2018-12-08T19:12:43.262Z,97379.22
2018-12-08T19:15:47.314Z,97376.17
2018-12-08T19:18:52.380Z,97378.37
2018-12-08T19:21:56.511Z,97377.67
2018-12-08T19:25:00.582Z,97359.41
2018-12-08T19:28:04.870Z,97364.66
2018-12-08T19:31:08.996Z,97358.22
2018-12-08T19:41:47.679Z,97346.80
2018-12-08T19:44:51.764Z,97338.42
2018-12-08T19:47:55.824Z,97322.64
2018-12-08T19:50:59.917Z,97340.59
2018-12-08T19:54:04.115Z,97330.80
2018-12-08T19:57:08.210Z,97322.32
2018-12-08T20:00:12.459Z,97309.78
2018-12-08T20:03:17.847Z,97305.88
2018-12-08T20:06:21.937Z,97300.84
2018-12-08T20:09:26.006Z,97316.05
2018-12-08T20:12:30.072Z,97306.07
2018-12-08T20:15:35.154Z,97296.74
2018-12-08T20:21:50.372Z,97268.39
2018-12-08T20:24:54.493Z,97262.38
2018-12-08T20:27:58.567Z,97267.99
2018-12-08T20:31:02.632Z,97256.94
2018-12-08T20:34:06.718Z,97270.63
2018-12-08T20:37:10.798Z,97261.56
2018-12-08T20:40:14.950Z,97248.41
2018-12-08T20:43:19.017Z,97242.89
2018-12-08T20:46:23.072Z,97245.92
2018-12-08T20:49:28.121Z,97236.48
2018-12-08T20:52:33.090Z,97228.49
2018-12-08T20:55:37.165Z,97223.23
2018-12-08T20:58:41.251Z,97223.07
2018-12-08T21:01:45.330Z,97209.20
2018-12-08T21:04:49.399Z,97202.79
2018-12-08T21:07:53.461Z,97202.27
2018-12-08T21:10:58.502Z,97188.11
2018-12-08T21:14:02.721Z,97178.23
2018-12-08T21:17:06.784Z,97170.55
2018-12-08T21:20:10.871Z,97162.59
2018-12-08T21:23:14.946Z,97151.70
2018-12-08T21:26:19.076Z,97144.55
2018-12-08T21:29:23.155Z,97143.03
2018-12-08T21:32:27.210Z,97134.91
2018-12-08T21:35:31.302Z,97129.28
2018-12-08T21:38:35.370Z,97124.36
2018-12-08T21:41:39.430Z,97122.70
2018-12-08T21:44:43.512Z,97104.53
2018-12-08T21:47:47.613Z,97117.92
2018-12-08T21:50:51.696Z,97103.38
2018-12-08T21:53:55.757Z,97102.28
2018-12-08T21:57:00.811Z,97093.84
2018-12-08T22:00:07.657Z,97080.34
2018-12-08T22:03:11.797Z,97068.47
2018-12-08T22:06:15.882Z,97069.12
2018-12-08T22:09:19.993Z,97037.73
2018-12-08T22:12:24.080Z,97010.53
2018-12-08T22:15:28.142Z,97000.83
2018-12-08T22:18:32.236Z,97003.39
2018-12-08T22:21:36.317Z,97000.34
2018-12-08T22:24:40.365Z,97014.59
2018-12-08T22:27:44.474Z,97000.39
2018-12-08T22:30:50.348Z,96985.89
2018-12-08T22:33:54.468Z,96986.59
2018-12-08T22:36:58.538Z,96967.80
2018-12-08T22:40:02.677Z,96960.47
2018-12-08T22:43:06.749Z,96953.03
2018-12-08T22:46:10.813Z,96941.31
2018-12-08T22:49:14.891Z,96936.13
2018-12-08T22:52:18.957Z,96929.92
2018-12-08T22:55:23.028Z,96918.75
2018-12-08T22:58:27.111Z,96900.25
2018-12-08T23:01:32.707Z,96899.77
2018-12-08T23:04:37.591Z,96887.84
2018-12-08T23:07:41.714Z,96873.34
2018-12-08T23:10:45.942Z,96893.59
2018-12-08T23:17:08.953Z,96864.60
2018-12-08T23:20:13.184Z,96863.02
2018-12-08T23:23:17.252Z,96853.95
2018-12-08T23:26:21.345Z,96826.31
2018-12-08T23:29:25.473Z,96811.49
2018-12-08T23:32:29.578Z,96818.62
2018-12-08T23:35:33.671Z,96813.34
2018-12-08T23:38:37.806Z,96822.84
2018-12-08T23:41:41.954Z,96824.34
2018-12-08T23:44:46.085Z,96820.56
2018-12-08T23:47:50.205Z,96822.23
2018-12-08T23:54:47.860Z,96807.48
